CheckWX is a tool to help pilots better visualize weather data.  It is not intended as a substitute for an official pre-flight weather briefing.

20:12:11 UTC

KBNA TAF
Nashville International Airport
Nashville, Tennessee, USA
KBNA 191858Z 1919/2018 15009KT P6SM -SHRA OVC030 FM192300 15008KT P6SM VCSH OVC025 FM200200 18004KT 6SM BR OVC015 FM200800 18003KT 4SM BR OVC009 FM201500 17005KT P6SM BKN025

Oct-19@
19:00 UTC

Oct-19 @ 19:00 UTC

Oct-19@
23:00 UTC

Oct-19 @ 23:00 UTC

KBNA 191858Z 1919/2018 15009KT P6SM -SHRA OVC030
Wind
  • 150° at 9 KTS
Conditions
Light Rain
Cloud Levels
  • Overcast at 3,000' AGL

Oct-19@
23:00 UTC

Oct-19 @ 23:00 UTC

Oct-20@
02:00 UTC

Oct-20 @ 02:00 UTC

FM192300 15008KT P6SM VCSH OVC025

From

From Standard forecast or significant change

Wind
  • 150° at 8 KTS
Cloud Levels
  • Overcast at 2,500' AGL

Oct-20@
02:00 UTC

Oct-20 @ 02:00 UTC

Oct-20@
08:00 UTC

Oct-20 @ 08:00 UTC

FM200200 18004KT 6SM BR OVC015

From

From Standard forecast or significant change

Wind
  • 180° at 4 KTS
Conditions
Mist
Cloud Levels
  • Overcast at 1,500' AGL

Oct-20@
08:00 UTC

Oct-20 @ 08:00 UTC

Oct-20@
15:00 UTC

Oct-20 @ 15:00 UTC

FM200800 18003KT 4SM BR OVC009

From

From Standard forecast or significant change

Wind
  • 180° at 3 KTS
Conditions
Mist
Cloud Levels
  • Overcast at 900' AGL

Oct-20@
15:00 UTC

Oct-20 @ 15:00 UTC

Oct-20@
18:00 UTC

Oct-20 @ 18:00 UTC

FM201500 17005KT P6SM BKN025

From

From Standard forecast or significant change

Wind
  • 170° at 5 KTS
Cloud Levels
  • Broken at 2,500' AGL